Diego Garcia, British Indian Ocean

10:02 AM IOT on May 27, 2015 (GMT +0600)
Diego Garcia Navy | | Change Station
CLOSE
Current Station
Airport
Location: Diego Garcia,
Elevation: 10 ft
Nearby Weather Stations

Elev 10 ft 7.31 °S, 72.41 °E | Updated 7 minutes ago

Overcast
Overcast
81 °F
Feels Like 89 °F
N
13
Wind Variable Wind from East

Today
High -- | Low -- °F
--% Chance of Precip.
Yesterday
High -- | Low -- °F
Precip. -- in
7:15 AM 6:59 PM
Waxing Gibbous, 63% visible
Pressure 29.89 in
Visibility 6.2 miles
Clouds Few 2000 ft
Scattered Clouds 5000 ft
Overcast 8000 ft
Heat Index 89 °F
Dew Point 77 °F
Humidity 88%
Rainfall 1.01 in
Snow Depth Not available.
UV 2 out of 12
Pollen Not available.
Air Quality Not available.
Flu Activity Not available.
METAR FJDG 270355Z 08011KT 9999 FEW020 SCT050 OVC080 27/25 A2990 RMK SLP122 T2SET P0003 T02740252

More Conditions Fewer Conditions

Pressure 29.89 in
Visibility 6.2 miles
Clouds Few 2000 ft
Scattered Clouds 5000 ft
Overcast 8000 ft
Heat Index 89 °F
Dew Point 77 °F
Humidity 88%
Rainfall 1.01 in
Snow Depth Not available.
UV 2 out of 12
Pollen Not available.
Air Quality Not available.
Flu Activity Not available.
METAR FJDG 270355Z 08011KT 9999 FEW020 SCT050 OVC080 27/25 A2990 RMK SLP122 T2SET P0003 T02740252

More Conditions Fewer Conditions

10-Day Weather Forecast

Almanac

Astronomy

May. 27, 2015 Rise Set
Actual Time
Civil Twilight
Nautical Twilight
Astronomical Twilight
Moon
Length of Visible Light
Length of Day
Tomorrow will be .
, % of the Moon is Illuminated

Today's Extremes

Country Highs Country Lows

Community

WunderPhotos

Upload Photos

1,824,606 photos uploaded!

WunderBlogs® & News

Nearby

Air Quality

  Air Quality AQ Index Pollutant
Not available.

Snow Depth

Station Depth Elevation

Earthquake Activity

City Distance Mag. Time & Date
Minimum magnitude displayed is 2.5.

Coastal Water Temperatures

Place Temperature

Stations

Nearby Weather Stations

Station Location Temp. Windchill Dew Point Humidity Wind Precip. Elev Updated Type